Time;durP1;ratioP1;P1;durP2;ratioP2;P2;SDS_P1;SDS_P2;PMS_P1;PMS_P2;Temp;Humidity;BMP_temperature;BMP_pressure;BME280_temperature;BME280_humidity;BME280_pressure;Samples;Min_cycle;Max_cycle;Signal;HPM_P1;HPM_P2
2021/09/24 00:01:15;;;;;;;9.00;2.30;;;16.90;99.90;;;;;;5111929;28;20019;-41
2021/09/24 00:03:41;;;;;;;5.75;2.28;;;16.90;99.90;;;;;;5112760;28;20016;-42
2021/09/24 00:06:06;;;;;;;8.27;2.63;;;16.90;99.90;;;;;;5111865;28;20384;-37
2021/09/24 00:08:32;;;;;;;5.88;2.33;;;16.90;99.90;;;;;;5111782;28;20027;-42
2021/09/24 00:10:58;;;;;;;5.50;1.98;;;17.00;99.90;;;;;;5112081;28;20034;-39
2021/09/24 00:13:24;;;;;;;8.13;2.40;;;17.00;99.90;;;;;;5112212;28;20031;-40
2021/09/24 00:15:51;;;;;;;5.65;2.00;;;17.00;99.90;;;;;;5111926;28;20024;-44
2021/09/24 00:18:17;;;;;;;5.20;1.90;;;17.00;99.90;;;;;;5111606;28;20098;-38
2021/09/24 00:20:45;;;;;;;6.30;2.42;;;17.00;99.90;;;;;;5112470;28;20062;-38
2021/09/24 00:23:36;;;;;;;5.00;2.58;;;17.00;99.90;;;;;;5112147;28;20394;-42
2021/09/24 00:26:26;;;;;;;6.28;2.10;;;16.90;99.90;;;;;;5107748;28;20387;-37
2021/09/24 00:28:52;;;;;;;6.88;1.95;;;16.90;99.90;;;;;;5111937;28;20019;-41
2021/09/24 00:31:23;;;;;;;7.63;2.25;;;16.90;99.90;;;;;;5111761;28;20069;-36
2021/09/24 00:33:49;;;;;;;4.07;1.85;;;17.00;99.90;;;;;;5112361;28;20035;-40
2021/09/24 00:36:26;;;;;;;4.00;1.92;;;16.90;99.90;;;;;;5111087;28;20528;-38
2021/09/24 00:38:52;;;;;;;8.13;2.05;;;16.90;99.90;;;;;;5112495;28;20028;-40
2021/09/24 00:41:21;;;;;;;6.93;2.25;;;16.90;99.90;;;;;;5110836;28;20428;-38
2021/09/24 00:43:46;;;;;;;3.95;1.90;;;16.90;99.90;;;;;;5111830;28;20103;-37
2021/09/24 00:46:14;;;;;;;5.43;1.92;;;16.90;99.90;;;;;;5112248;28;20106;-37
2021/09/24 00:48:40;;;;;;;4.22;1.92;;;17.00;99.90;;;;;;5111518;28;20023;-43
2021/09/24 00:51:05;;;;;;;4.90;1.80;;;17.00;99.90;;;;;;5111524;28;20019;-38
2021/09/24 00:53:31;;;;;;;6.03;2.08;;;17.00;99.90;;;;;;5110753;28;20380;-38
2021/09/24 00:55:58;;;;;;;5.72;2.30;;;17.00;99.90;;;;;;5111403;28;20027;-40
2021/09/24 00:58:24;;;;;;;6.32;2.35;;;17.00;99.90;;;;;;5110638;28;20020;-39
2021/09/24 01:00:49;;;;;;;5.82;2.30;;;17.00;99.90;;;;;;5111047;28;20076;-39
2021/09/24 01:03:15;;;;;;;4.97;1.90;;;17.00;99.90;;;;;;5110890;28;20016;-40
2021/09/24 01:05:41;;;;;;;6.72;2.00;;;17.00;99.90;;;;;;5110444;28;20473;-40
2021/09/24 01:08:07;;;;;;;3.30;1.90;;;16.90;99.90;;;;;;5111333;28;20024;-42
2021/09/24 01:10:33;;;;;;;6.93;2.33;;;16.90;99.90;;;;;;5111739;28;20773;-42
2021/09/24 01:12:58;;;;;;;6.38;2.40;;;16.90;99.90;;;;;;5110698;28;20031;-43
2021/09/24 01:15:24;;;;;;;6.40;2.17;;;16.90;99.90;;;;;;5110820;28;20458;-38
2021/09/24 01:17:49;;;;;;;6.20;2.20;;;16.90;99.90;;;;;;5110800;28;20054;-38
2021/09/24 01:20:19;;;;;;;4.80;2.10;;;16.90;99.90;;;;;;5110651;28;20098;-39
2021/09/24 01:22:45;;;;;;;5.57;2.28;;;16.90;99.90;;;;;;5110851;28;20036;-39
2021/09/24 01:25:12;;;;;;;6.43;2.10;;;16.90;99.90;;;;;;5111546;28;20489;-41
2021/09/24 01:27:37;;;;;;;5.85;2.05;;;16.90;99.90;;;;;;5108967;28;20063;-43
2021/09/24 01:30:05;;;;;;;6.45;2.22;;;16.90;99.90;;;;;;5110884;28;20051;-39
2021/09/24 01:32:30;;;;;;;5.57;2.20;;;16.90;99.90;;;;;;5110088;28;20055;-39
2021/09/24 01:34:59;;;;;;;6.35;2.20;;;16.90;99.90;;;;;;5110750;28;20484;-41
2021/09/24 01:37:25;;;;;;;6.30;2.78;;;16.80;99.90;;;;;;5110144;28;20016;-38
2021/09/24 01:39:51;;;;;;;5.65;2.50;;;16.90;99.90;;;;;;5110457;28;20027;-42
2021/09/24 01:42:16;;;;;;;4.75;2.20;;;16.80;99.90;;;;;;5110692;28;20055;-38
2021/09/24 01:44:42;;;;;;;4.55;2.47;;;16.80;99.90;;;;;;5110718;28;20051;-42
2021/09/24 01:47:07;;;;;;;6.32;2.10;;;16.90;99.90;;;;;;5110356;28;20062;-42
2021/09/24 01:49:33;;;;;;;6.05;2.60;;;16.90;99.90;;;;;;5110088;28;20116;-39
2021/09/24 01:51:59;;;;;;;5.40;2.38;;;16.90;99.90;;;;;;5110754;28;20039;-40
2021/09/24 01:54:24;;;;;;;6.80;2.50;;;16.90;99.90;;;;;;5109194;28;20066;-38
2021/09/24 01:56:50;;;;;;;5.72;2.28;;;16.90;99.90;;;;;;5111226;28;20027;-38
2021/09/24 01:59:24;;;;;;;4.65;2.40;;;16.90;99.90;;;;;;5110190;28;20383;-38
2021/09/24 02:01:50;;;;;;;6.53;2.20;;;16.90;99.90;;;;;;5110313;28;20028;-39
2021/09/24 02:04:17;;;;;;;4.22;2.15;;;16.90;99.90;;;;;;5110409;28;20626;-42
2021/09/24 02:06:48;;;;;;;5.18;2.15;;;16.90;99.90;;;;;;5110028;28;20038;-40
2021/09/24 02:09:14;;;;;;;5.83;2.10;;;16.80;99.90;;;;;;5109262;28;20028;-39
2021/09/24 02:11:40;;;;;;;6.18;2.22;;;16.80;99.90;;;;;;5110020;28;20353;-40
2021/09/24 02:14:08;;;;;;;4.95;2.33;;;16.80;99.90;;;;;;5110143;28;20036;-39
2021/09/24 02:16:34;;;;;;;6.00;2.47;;;16.80;99.90;;;;;;5109279;28;20134;-42
2021/09/24 02:19:00;;;;;;;9.68;2.67;;;16.80;99.90;;;;;;5109850;28;20023;-41
2021/09/24 02:21:26;;;;;;;5.22;2.10;;;16.80;99.90;;;;;;5109876;28;20023;-41
2021/09/24 02:23:55;;;;;;;5.10;2.22;;;16.80;99.90;;;;;;5109573;28;20538;-42
2021/09/24 02:26:20;;;;;;;6.40;3.13;;;16.80;99.90;;;;;;5109809;28;20028;-38
2021/09/24 02:28:46;;;;;;;5.15;2.60;;;16.80;99.90;;;;;;5110323;28;20027;-44
2021/09/24 02:31:12;;;;;;;5.13;2.60;;;16.80;99.90;;;;;;5109929;28;20085;-43
2021/09/24 02:33:39;;;;;;;6.85;2.47;;;16.80;99.90;;;;;;5109668;28;20071;-42
2021/09/24 02:36:07;;;;;;;6.07;2.65;;;16.80;99.90;;;;;;5109579;28;20047;-42
2021/09/24 02:38:36;;;;;;;5.47;2.92;;;16.80;99.90;;;;;;5109576;28;20024;-36
2021/09/24 02:41:02;;;;;;;7.07;2.72;;;16.80;99.90;;;;;;5109981;28;20391;-41
2021/09/24 02:43:28;;;;;;;7.05;3.30;;;16.80;99.90;;;;;;5108801;28;20452;-37
2021/09/24 02:45:54;;;;;;;6.40;2.97;;;16.80;99.90;;;;;;5110250;28;20493;-42
2021/09/24 02:48:20;;;;;;;7.30;2.80;;;16.80;99.90;;;;;;5109240;28;20048;-41
2021/09/24 02:50:49;;;;;;;8.20;3.40;;;16.70;99.90;;;;;;5109822;28;20073;-40
2021/09/24 02:53:14;;;;;;;6.35;3.42;;;16.80;99.90;;;;;;5109938;28;20032;-42
2021/09/24 02:55:43;;;;;;;8.48;3.50;;;16.80;99.90;;;;;;5109257;28;20103;-39
2021/09/24 02:58:08;;;;;;;7.53;3.25;;;16.80;99.90;;;;;;5109837;28;20031;-39
2021/09/24 03:00:34;;;;;;;7.47;3.40;;;16.80;99.90;;;;;;5109300;28;20065;-42
2021/09/24 03:02:59;;;;;;;6.22;3.55;;;16.80;99.90;;;;;;5109998;28;20118;-40
2021/09/24 03:05:25;;;;;;;7.38;3.55;;;16.80;99.90;;;;;;5108897;28;20023;-43
2021/09/24 03:07:51;;;;;;;10.10;3.88;;;16.80;99.90;;;;;;5109442;28;20484;-39
2021/09/24 03:10:17;;;;;;;5.00;3.38;;;16.80;99.90;;;;;;5109725;28;20402;-40
2021/09/24 03:12:42;;;;;;;7.13;3.75;;;16.90;99.90;;;;;;5109491;28;20646;-42
2021/09/24 03:15:10;;;;;;;7.53;3.90;;;16.80;99.90;;;;;;5110210;28;20061;-40
2021/09/24 03:17:39;;;;;;;6.85;3.28;;;16.80;99.90;;;;;;5108713;28;20139;-40
2021/09/24 03:20:09;;;;;;;9.70;3.60;;;16.80;99.90;;;;;;5109454;28;20020;-40
2021/09/24 03:22:35;;;;;;;5.95;3.58;;;16.80;99.90;;;;;;5109145;28;20027;-41
2021/09/24 03:25:00;;;;;;;4.60;3.30;;;16.80;99.90;;;;;;5111372;28;20024;-40
2021/09/24 03:27:27;;;;;;;6.63;3.60;;;16.80;99.90;;;;;;5113227;28;20028;-41
2021/09/24 03:29:53;;;;;;;6.35;3.30;;;16.80;99.90;;;;;;5113300;28;20494;-38
2021/09/24 03:32:22;;;;;;;6.10;3.92;;;16.80;99.90;;;;;;5111785;28;20036;-39
2021/09/24 03:34:49;;;;;;;4.97;3.47;;;16.80;99.90;;;;;;5113762;28;20135;-40
2021/09/24 03:37:15;;;;;;;5.68;3.70;;;16.80;99.90;;;;;;5112968;28;20390;-39
2021/09/24 03:39:41;;;;;;;7.18;3.58;;;16.70;99.90;;;;;;5112364;28;20020;-41
2021/09/24 03:42:07;;;;;;;6.65;3.70;;;16.70;99.90;;;;;;5113007;28;20015;-38
2021/09/24 03:44:32;;;;;;;6.82;3.30;;;16.60;99.90;;;;;;5112517;28;20080;-39
2021/09/24 03:47:01;;;;;;;6.65;3.50;;;16.50;99.90;;;;;;5112560;28;20159;-42
2021/09/24 03:49:26;;;;;;;5.65;3.70;;;16.40;99.90;;;;;;5112498;28;20032;-40
2021/09/24 03:51:53;;;;;;;5.55;3.70;;;16.30;99.90;;;;;;5112855;28;20019;-35
2021/09/24 03:54:19;;;;;;;7.88;3.90;;;16.30;99.90;;;;;;5112104;28;20110;-41
2021/09/24 03:56:47;;;;;;;6.53;3.95;;;16.20;99.90;;;;;;5112337;28;20051;-42
2021/09/24 03:59:16;;;;;;;7.72;4.30;;;16.20;99.90;;;;;;5110230;28;20524;-40
2021/09/24 04:01:41;;;;;;;7.93;4.53;;;16.20;99.90;;;;;;5112419;28;20020;-39
2021/09/24 04:04:07;;;;;;;8.45;5.55;;;16.20;99.90;;;;;;5112360;28;20042;-37
2021/09/24 04:06:33;;;;;;;7.93;5.43;;;16.30;99.90;;;;;;5112505;28;20792;-38
2021/09/24 04:08:58;;;;;;;8.57;6.97;;;16.20;99.90;;;;;;5111738;28;20023;-41
2021/09/24 04:11:24;;;;;;;8.82;6.63;;;16.30;99.90;;;;;;5112175;28;20099;-38
2021/09/24 04:13:49;;;;;;;13.10;7.82;;;16.20;99.90;;;;;;5112354;28;20535;-40
2021/09/24 04:16:15;;;;;;;14.57;10.15;;;16.20;99.90;;;;;;5111472;28;20019;-42
2021/09/24 04:18:41;;;;;;;12.48;9.10;;;16.20;99.90;;;;;;5112223;28;20015;-37
2021/09/24 04:21:09;;;;;;;12.48;9.73;;;16.20;99.90;;;;;;5112227;28;20030;-36
2021/09/24 04:23:35;;;;;;;14.65;10.63;;;16.30;99.90;;;;;;5111249;28;20046;-42
2021/09/24 04:26:01;;;;;;;11.52;9.23;;;16.30;99.90;;;;;;5112145;28;20459;-42
2021/09/24 04:28:27;;;;;;;16.30;11.93;;;16.30;99.90;;;;;;5111098;28;20020;-41
2021/09/24 04:30:59;;;;;;;17.08;12.43;;;16.30;99.90;;;;;;5112249;28;20023;-38
2021/09/24 04:33:30;;;;;;;19.17;16.02;;;16.30;99.90;;;;;;5111713;28;20023;-41
2021/09/24 04:35:56;;;;;;;27.27;20.85;;;16.30;99.90;;;;;;5110887;28;20451;-41
2021/09/24 04:38:21;;;;;;;25.83;20.70;;;16.30;99.90;;;;;;5111114;28;20115;-40
2021/09/24 04:40:47;;;;;;;30.02;21.73;;;16.20;99.90;;;;;;5112438;28;20077;-41
2021/09/24 04:43:12;;;;;;;27.00;21.88;;;16.20;99.90;;;;;;5111769;28;20417;-40
2021/09/24 04:45:38;;;;;;;30.27;23.98;;;16.20;99.90;;;;;;5110863;28;20043;-41
2021/09/24 04:48:04;;;;;;;35.70;24.35;;;16.20;99.90;;;;;;5112588;28;20054;-40
2021/09/24 04:50:30;;;;;;;30.67;24.13;;;16.20;99.90;;;;;;5110639;28;20378;-40
2021/09/24 04:52:55;;;;;;;34.35;25.40;;;16.20;99.90;;;;;;5111997;28;20090;-39
2021/09/24 04:55:21;;;;;;;34.17;24.42;;;16.20;99.90;;;;;;5111352;28;20020;-39
2021/09/24 04:57:46;;;;;;;39.85;27.58;;;16.20;99.90;;;;;;5110586;28;20111;-43
2021/09/24 05:00:12;;;;;;;39.28;26.13;;;16.20;99.90;;;;;;5111836;28;20055;-41
2021/09/24 05:02:39;;;;;;;29.25;21.70;;;16.20;99.90;;;;;;5111076;28;20466;-41
2021/09/24 05:05:06;;;;;;;29.27;20.35;;;16.30;99.90;;;;;;5110712;28;20389;-36
2021/09/24 05:07:41;;;;;;;30.23;21.55;;;16.30;99.90;;;;;;5111175;28;20024;-37
2021/09/24 05:10:07;;;;;;;30.90;21.80;;;16.30;99.90;;;;;;5111290;28;20463;-41
2021/09/24 05:12:33;;;;;;;33.75;21.17;;;16.30;99.90;;;;;;5110051;28;20028;-40
2021/09/24 05:15:02;;;;;;;31.02;21.33;;;16.40;99.90;;;;;;5111759;28;20026;-38
2021/09/24 05:17:27;;;;;;;34.70;23.60;;;16.40;99.90;;;;;;5088358;28;20046;-39
2021/09/24 05:19:53;;;;;;;35.20;23.85;;;16.40;99.90;;;;;;5111115;28;20019;-42
2021/09/24 05:22:18;;;;;;;44.38;25.40;;;16.40;99.90;;;;;;5110289;28;20031;-41
2021/09/24 05:24:44;;;;;;;40.28;24.02;;;16.40;99.90;;;;;;5110597;28;20347;-41
2021/09/24 05:27:09;;;;;;;41.35;22.70;;;16.40;99.90;;;;;;5110959;28;20024;-39
2021/09/24 05:29:38;;;;;;;38.45;23.52;;;16.50;99.90;;;;;;5110725;28;20104;-42
2021/09/24 05:32:04;;;;;;;38.75;22.33;;;16.50;99.90;;;;;;5110331;28;20139;-41
2021/09/24 05:34:29;;;;;;;39.15;23.38;;;16.60;99.90;;;;;;5110161;28;20414;-40
2021/09/24 05:36:55;;;;;;;44.05;24.33;;;16.60;99.90;;;;;;5110739;28;20011;-41
2021/09/24 05:39:20;;;;;;;38.83;23.65;;;16.60;99.90;;;;;;5110380;28;20024;-41
2021/09/24 05:41:46;;;;;;;43.85;25.23;;;16.60;99.90;;;;;;5111007;28;20022;-42
2021/09/24 05:44:11;;;;;;;36.83;23.25;;;16.60;99.90;;;;;;5110973;28;20028;-39
2021/09/24 05:46:37;;;;;;;47.22;26.92;;;16.60;99.90;;;;;;5108832;28;20068;-39
2021/09/24 05:49:03;;;;;;;44.28;23.90;;;16.60;99.90;;;;;;5110957;28;20019;-42
2021/09/24 05:51:28;;;;;;;40.25;24.88;;;16.60;99.90;;;;;;5110128;28;20020;-42
2021/09/24 05:53:54;;;;;;;50.42;27.63;;;16.60;99.90;;;;;;5090034;28;20047;-43
2021/09/24 05:56:19;;;;;;;45.67;27.67;;;16.70;99.90;;;;;;5090924;28;20016;-39
2021/09/24 05:58:45;;;;;;;46.58;26.67;;;16.70;99.90;;;;;;5110393;28;20062;-37
2021/09/24 06:01:11;;;;;;;47.38;28.92;;;16.70;99.90;;;;;;5106368;28;20023;-39
2021/09/24 06:03:36;;;;;;;55.33;29.23;;;16.70;99.90;;;;;;5109205;28;20019;-40
2021/09/24 06:06:02;;;;;;;46.25;26.17;;;16.70;99.90;;;;;;5091004;28;20048;-39
2021/09/24 06:08:28;;;;;;;50.67;28.98;;;16.80;99.90;;;;;;5107353;28;20024;-38
2021/09/24 06:10:55;;;;;;;54.10;30.05;;;16.90;99.90;;;;;;5109514;28;20532;-39
2021/09/24 06:13:20;;;;;;;46.95;28.17;;;16.80;99.90;;;;;;5108737;28;20066;-43
2021/09/24 06:15:48;;;;;;;59.40;33.17;;;16.90;99.90;;;;;;5107864;28;20058;-44
2021/09/24 06:18:14;;;;;;;53.90;31.98;;;16.90;99.90;;;;;;5108767;28;20523;-39
2021/09/24 06:20:52;;;;;;;56.15;30.90;;;16.90;99.90;;;;;;5108976;28;20542;-43
2021/09/24 06:23:17;;;;;;;56.00;32.00;;;16.90;99.90;;;;;;5106773;28;20051;-41
2021/09/24 06:25:43;;;;;;;54.72;32.25;;;16.90;99.90;;;;;;5110528;28;20495;-41
2021/09/24 06:28:08;;;;;;;54.30;31.23;;;16.90;99.90;;;;;;5089173;28;20039;-38
2021/09/24 06:30:34;;;;;;;51.03;29.73;;;17.00;99.90;;;;;;5104292;28;20424;-37
2021/09/24 06:32:59;;;;;;;54.72;31.80;;;17.00;99.90;;;;;;5107176;28;20071;-39
2021/09/24 06:35:25;;;;;;;52.38;30.15;;;17.00;99.90;;;;;;5081409;28;20016;-39
2021/09/24 06:37:51;;;;;;;49.63;28.13;;;17.00;99.90;;;;;;5087315;28;20023;-37
2021/09/24 06:40:16;;;;;;;42.13;26.42;;;17.00;99.90;;;;;;5085295;28;20103;-39
2021/09/24 06:42:42;;;;;;;49.70;28.17;;;17.00;99.90;;;;;;5092659;28;20651;-39
2021/09/24 06:45:13;;;;;;;43.83;26.35;;;17.10;99.90;;;;;;5110146;28;20016;-39
2021/09/24 06:47:39;;;;;;;47.58;28.20;;;17.10;99.90;;;;;;5109130;28;20374;-38
2021/09/24 06:50:05;;;;;;;44.88;26.85;;;17.10;99.90;;;;;;5109822;28;20042;-37
2021/09/24 06:52:31;;;;;;;44.63;26.98;;;17.10;99.90;;;;;;5109900;28;20032;-37
2021/09/24 06:54:57;;;;;;;45.08;26.80;;;17.10;99.90;;;;;;5110275;28;20028;-37
2021/09/24 06:57:32;;;;;;;38.15;24.35;;;17.10;99.90;;;;;;5108582;28;20080;-39
2021/09/24 06:59:58;;;;;;;42.53;26.70;;;17.20;99.90;;;;;;5112168;28;20058;-40
2021/09/24 07:02:23;;;;;;;39.63;26.27;;;17.10;99.90;;;;;;5113141;28;20043;-40
2021/09/24 07:04:49;;;;;;;42.20;25.58;;;17.10;99.90;;;;;;5113026;28;20019;-39
2021/09/24 07:07:14;;;;;;;36.28;24.23;;;17.10;99.90;;;;;;5113406;28;20020;-39
2021/09/24 07:09:40;;;;;;;44.13;28.13;;;17.20;99.90;;;;;;5106567;28;20024;-37
2021/09/24 07:12:06;;;;;;;38.70;22.65;;;17.10;99.90;;;;;;5109401;28;20463;-38
2021/09/24 07:14:32;;;;;;;38.15;23.80;;;17.20;99.90;;;;;;5113053;28;20015;-41
2021/09/24 07:16:59;;;;;;;42.47;25.70;;;17.20;99.90;;;;;;5113653;28;20152;-41
2021/09/24 07:19:25;;;;;;;36.30;24.63;;;17.20;99.90;;;;;;5112528;28;20015;-39
2021/09/24 07:21:50;;;;;;;40.88;24.35;;;17.20;99.90;;;;;;5113819;28;20102;-41
2021/09/24 07:24:17;;;;;;;43.65;27.10;;;17.30;99.90;;;;;;5112854;28;20108;-40
2021/09/24 07:26:44;;;;;;;37.15;23.50;;;17.30;99.90;;;;;;5090795;28;20589;-38
2021/09/24 07:29:12;;;;;;;36.72;24.25;;;17.30;99.90;;;;;;5113206;28;20478;-38
2021/09/24 07:31:38;;;;;;;37.85;25.05;;;17.30;99.90;;;;;;5112694;28;20018;-42
2021/09/24 07:34:06;;;;;;;39.10;25.70;;;17.30;99.90;;;;;;5113253;28;20122;-40
2021/09/24 07:36:32;;;;;;;37.55;24.85;;;17.30;99.90;;;;;;5112717;28;20012;-41
2021/09/24 07:38:58;;;;;;;44.05;29.05;;;17.40;99.90;;;;;;5089952;28;20031;-36
2021/09/24 07:41:26;;;;;;;38.33;25.80;;;17.40;99.90;;;;;;5109422;28;20102;-42
2021/09/24 07:43:53;;;;;;;40.70;25.85;;;17.40;99.90;;;;;;5109440;28;20030;-42
2021/09/24 07:46:20;;;;;;;39.33;25.25;;;17.40;99.90;;;;;;5100326;28;20027;-40
2021/09/24 07:48:47;;;;;;;40.08;25.52;;;17.40;99.90;;;;;;5086785;28;20101;-42
2021/09/24 07:51:16;;;;;;;40.50;26.13;;;17.50;99.90;;;;;;5104859;28;20410;-45
2021/09/24 07:53:42;;;;;;;44.03;27.88;;;17.50;99.90;;;;;;5110308;28;20077;-37
2021/09/24 07:56:09;;;;;;;41.58;26.02;;;17.50;99.90;;;;;;5111463;28;20047;-43
2021/09/24 07:58:38;;;;;;;44.92;27.25;;;17.60;99.90;;;;;;5110832;28;20102;-40
2021/09/24 08:01:04;;;;;;;51.47;29.13;;;17.60;99.90;;;;;;5110715;28;20028;-42
2021/09/24 08:03:30;;;;;;;48.83;29.95;;;17.60;99.90;;;;;;5111001;28;20424;-40
2021/09/24 08:05:55;;;;;;;56.75;32.20;;;17.60;99.90;;;;;;5112705;28;20012;-42
2021/09/24 08:08:26;;;;;;;42.63;25.98;;;17.60;99.90;;;;;;5111681;28;20051;-43
2021/09/24 08:10:52;;;;;;;52.55;30.52;;;17.60;99.90;;;;;;5111840;28;20011;-42
2021/09/24 08:13:17;;;;;;;48.60;27.42;;;17.70;99.90;;;;;;5111386;28;20031;-39
2021/09/24 08:15:43;;;;;;;48.08;29.15;;;17.70;99.90;;;;;;5112875;28;20107;-39
2021/09/24 08:18:14;;;;;;;51.72;27.90;;;17.70;99.90;;;;;;5111929;28;20048;-40
2021/09/24 08:20:44;;;;;;;58.10;32.15;;;17.70;99.90;;;;;;5108520;28;20103;-39
2021/09/24 08:23:11;;;;;;;57.53;30.60;;;17.70;99.90;;;;;;5104825;28;20028;-39
2021/09/24 08:25:40;;;;;;;51.92;28.77;;;17.80;99.90;;;;;;5111546;28;20023;-35
2021/09/24 08:28:07;;;;;;;64.18;32.25;;;17.80;99.90;;;;;;5111490;28;20027;-38
2021/09/24 08:30:32;;;;;;;53.20;29.58;;;17.80;99.90;;;;;;5111928;28;20012;-39
2021/09/24 08:33:02;;;;;;;51.80;28.98;;;17.90;99.90;;;;;;5112107;28;20084;-38
2021/09/24 08:35:28;;;;;;;53.22;30.45;;;17.90;99.90;;;;;;5103193;28;20043;-39
2021/09/24 08:37:57;;;;;;;51.85;29.58;;;18.00;99.90;;;;;;5107417;28;20058;-37
2021/09/24 08:40:25;;;;;;;50.38;28.17;;;18.00;99.90;;;;;;5111367;28;20072;-38
2021/09/24 08:42:50;;;;;;;56.50;31.67;;;18.00;99.90;;;;;;5111144;28;20026;-39
2021/09/24 08:45:30;;;;;;;60.50;32.55;;;18.00;99.90;;;;;;5111765;28;20028;-38
2021/09/24 08:48:05;;;;;;;53.10;30.23;;;18.10;99.90;;;;;;5111221;28;20112;-36
2021/09/24 08:50:33;;;;;;;50.67;30.00;;;18.10;99.90;;;;;;5110100;28;20071;-38
2021/09/24 08:53:05;;;;;;;51.38;28.48;;;18.20;99.90;;;;;;5111541;28;20114;-40
2021/09/24 08:55:31;;;;;;;60.35;32.97;;;18.20;99.90;;;;;;5111081;28;20478;-38
2021/09/24 08:57:57;;;;;;;50.42;30.23;;;18.30;99.90;;;;;;5111825;28;20106;-38
2021/09/24 09:00:23;;;;;;;47.30;28.70;;;18.30;99.90;;;;;;5110887;28;20020;-39
2021/09/24 09:03:14;;;;;;;45.17;27.15;;;18.40;99.90;;;;;;5107710;28;20024;-35
2021/09/24 09:05:51;;;;;;;42.03;24.55;;;18.50;99.90;;;;;;5110444;28;20236;-39
2021/09/24 09:08:23;;;;;;;48.78;26.73;;;18.60;99.90;;;;;;5111120;28;20080;-38
2021/09/24 09:10:56;;;;;;;48.97;28.98;;;18.60;99.90;;;;;;5110636;28;20085;-40
2021/09/24 09:13:22;;;;;;;;;;;18.70;99.90;;;;;;5110602;28;20031;-40
2021/09/24 09:15:53;;;;;;;50.33;28.48;;;18.70;99.90;;;;;;5087084;28;20361;-39
2021/09/24 09:18:19;;;;;;;46.67;30.48;;;18.80;99.90;;;;;;5084010;28;20043;-36
2021/09/24 09:20:47;;;;;;;46.05;30.10;;;18.90;99.90;;;;;;5099220;28;20376;-41
2021/09/24 09:23:28;;;;;;;44.10;27.98;;;18.90;99.90;;;;;;5110070;28;20012;-38
2021/09/24 09:26:00;;;;;;;37.95;26.15;;;19.00;99.90;;;;;;5091229;28;20023;-40
2021/09/24 09:28:36;;;;;;;40.42;27.27;;;19.10;99.90;;;;;;5110257;28;20015;-40
2021/09/24 09:31:27;;;;;;;37.08;24.95;;;19.30;99.90;;;;;;5090530;28;20034;-39
2021/09/24 09:34:05;;;;;;;33.58;23.40;;;19.40;99.90;;;;;;5110649;28;20454;-34
2021/09/24 09:36:37;;;;;;;38.97;25.85;;;19.40;99.90;;;;;;5109720;28;20024;-36
2021/09/24 09:39:12;;;;;;;34.38;24.20;;;19.50;99.90;;;;;;5109396;28;20035;-39
2021/09/24 09:41:48;;;;;;;29.73;21.90;;;19.50;99.90;;;;;;5109977;28;20055;-41
2021/09/24 09:44:24;;;;;;;30.75;21.00;;;19.50;99.90;;;;;;5110483;28;20073;-38
2021/09/24 09:46:50;;;;;;;29.85;22.15;;;19.50;99.90;;;;;;5109768;28;20059;-41
2021/09/24 09:49:15;;;;;;;27.35;21.58;;;19.60;99.90;;;;;;5110434;28;20051;-39
2021/09/24 09:51:43;;;;;;;26.50;20.88;;;19.60;99.90;;;;;;5109415;28;20021;-34
2021/09/24 09:54:29;;;;;;;24.65;20.10;;;19.60;99.90;;;;;;5110141;28;20533;-41
2021/09/24 09:57:11;;;;;;;25.02;18.42;;;19.60;99.90;;;;;;5089905;28;20022;-39
2021/09/24 09:59:37;;;;;;;26.75;18.50;;;19.60;99.90;;;;;;5084040;28;20048;-41
2021/09/24 10:02:17;;;;;;;23.02;18.35;;;19.60;99.90;;;;;;5079466;28;20056;-42
2021/09/24 10:04:45;;;;;;;24.90;18.80;;;19.70;99.90;;;;;;5087453;28;20068;-40
2021/09/24 10:07:12;;;;;;;20.02;16.25;;;19.70;99.90;;;;;;5096209;28;20405;-42
2021/09/24 10:09:38;;;;;;;16.73;14.70;;;19.70;99.90;;;;;;5095010;28;20055;-38
2021/09/24 10:12:21;;;;;;;22.05;16.80;;;19.80;99.90;;;;;;5086366;28;20043;-41
2021/09/24 10:14:51;;;;;;;22.50;17.48;;;19.80;99.90;;;;;;5084356;28;20024;-42
2021/09/24 10:17:18;;;;;;;24.90;18.77;;;19.80;99.90;;;;;;5084290;28;20387;-39
2021/09/24 10:19:45;;;;;;;23.33;17.88;;;19.80;99.90;;;;;;5088680;28;20020;-37
2021/09/24 10:22:12;;;;;;;16.52;14.82;;;19.90;99.90;;;;;;5109764;28;20023;-42
2021/09/24 10:24:38;;;;;;;17.80;14.77;;;19.90;99.90;;;;;;5109696;28;20042;-41
2021/09/24 10:27:06;;;;;;;17.77;15.60;;;20.00;99.90;;;;;;5109632;28;20088;-41
2021/09/24 10:29:35;;;;;;;19.02;14.95;;;20.10;99.90;;;;;;5109950;28;20468;-42
2021/09/24 10:32:16;;;;;;;17.52;14.98;;;20.20;99.90;;;;;;5108640;28;20479;-37
2021/09/24 10:34:57;;;;;;;17.17;13.23;;;20.40;99.90;;;;;;5093110;28;20060;-39
2021/09/24 10:37:24;;;;;;;16.48;13.60;;;20.50;99.90;;;;;;5112720;28;20506;-38
2021/09/24 10:39:58;;;;;;;18.05;14.75;;;20.60;99.90;;;;;;5114198;28;20364;-38
2021/09/24 10:42:34;;;;;;;15.93;13.35;;;20.70;99.90;;;;;;5108213;28;20094;-41
2021/09/24 10:45:05;;;;;;;17.63;14.52;;;20.80;99.90;;;;;;5080777;28;20040;-39
2021/09/24 10:47:56;;;;;;;15.52;13.23;;;20.80;99.90;;;;;;5107286;28;20023;-39
2021/09/24 10:50:30;;;;;;;13.98;12.48;;;20.80;99.90;;;;;;5104546;28;20486;-36
2021/09/24 10:53:17;;;;;;;13.18;11.52;;;20.90;99.90;;;;;;5096286;28;20046;-40
2021/09/24 10:56:07;;;;;;;16.40;13.35;;;20.90;99.90;;;;;;5082454;28;20029;-39
2021/09/24 10:58:41;;;;;;;13.10;11.70;;;21.00;99.90;;;;;;5095732;28;20383;-41
2021/09/24 11:01:11;;;;;;;13.50;12.10;;;20.90;99.90;;;;;;5113767;28;20031;-38
2021/09/24 11:03:56;;;;;;;15.43;13.93;;;20.90;99.90;;;;;;5112883;28;20011;-40
2021/09/24 11:06:43;;;;;;;15.80;12.07;;;20.80;99.90;;;;;;5112745;28;20479;-38
2021/09/24 11:09:12;;;;;;;14.32;12.05;;;20.80;99.90;;;;;;5084068;28;20490;-39
2021/09/24 11:11:42;;;;;;;12.95;10.45;;;20.90;99.90;;;;;;5086237;28;20016;-39
2021/09/24 11:14:35;;;;;;;14.13;12.60;;;20.90;99.90;;;;;;5090544;28;20073;-38
2021/09/24 11:17:03;;;;;;;14.25;12.75;;;20.90;99.90;;;;;;5082122;28;20096;-40
2021/09/24 11:19:55;;;;;;;12.65;11.35;;;20.90;99.90;;;;;;5089748;28;20035;-41
2021/09/24 11:22:37;;;;;;;12.27;11.00;;;20.90;99.90;;;;;;5112740;28;20143;-44
2021/09/24 11:25:06;;;;;;;17.30;13.68;;;20.90;99.90;;;;;;5113492;28;20023;-43
2021/09/24 11:27:36;;;;;;;13.43;11.70;;;21.00;99.90;;;;;;5112326;28;20301;-39
2021/09/24 11:30:02;;;;;;;13.85;11.68;;;21.00;99.90;;;;;;5113511;28;20020;-42
2021/09/24 11:32:41;;;;;;;15.32;12.75;;;21.00;99.90;;;;;;5112299;28;20030;-44
2021/09/24 11:35:09;;;;;;;14.43;11.40;;;21.10;99.90;;;;;;5077910;28;20024;-43
2021/09/24 11:37:37;;;;;;;13.02;11.73;;;21.10;99.90;;;;;;5087966;28;20015;-44
2021/09/24 11:40:15;;;;;;;13.88;12.35;;;21.20;99.90;;;;;;5113089;28;20206;-43
2021/09/24 11:42:57;;;;;;;14.63;13.10;;;21.20;99.90;;;;;;5111913;28;20037;-39
2021/09/24 11:45:29;;;;;;;15.63;13.43;;;21.30;99.90;;;;;;5089494;28;20078;-38
2021/09/24 11:47:57;;;;;;;;;;;21.30;99.90;;;;;;5113250;28;20019;-40
2021/09/24 11:50:22;;;;;;;14.88;13.32;;;21.30;99.90;;;;;;5111479;28;20282;-38
2021/09/24 11:52:54;;;;;;;16.60;14.07;;;21.30;99.90;;;;;;5111570;28;20092;-39
2021/09/24 11:55:29;;;;;;;13.63;12.27;;;21.30;99.90;;;;;;5105153;28;20063;-42
2021/09/24 11:58:27;;;;;;;16.40;14.52;;;21.30;99.90;;;;;;5112964;28;20016;-40
2021/09/24 12:00:57;;;;;;;15.88;14.20;;;21.40;99.90;;;;;;5086340;28;20014;-36
2021/09/24 12:03:31;;;;;;;17.20;14.32;;;21.50;99.90;;;;;;5085883;28;20076;-36
2021/09/24 12:06:12;;;;;;;20.95;17.48;;;21.60;99.90;;;;;;5086057;28;20039;-38
2021/09/24 12:08:46;;;;;;;16.48;14.38;;;21.70;99.70;;;;;;5080274;28;20463;-36
2021/09/24 12:11:17;;;;;;;17.33;15.52;;;21.80;99.80;;;;;;5090480;28;20031;-37
2021/09/24 12:13:57;;;;;;;18.85;16.15;;;21.80;99.70;;;;;;5084616;28;20050;-40
2021/09/24 12:16:28;;;;;;;17.30;14.98;;;21.80;99.50;;;;;;5111161;28;20356;-39
2021/09/24 12:18:54;;;;;;;18.85;16.95;;;21.80;99.70;;;;;;5112392;28;20019;-40
2021/09/24 12:21:40;;;;;;;22.13;17.80;;;21.80;99.50;;;;;;5111454;28;20030;-38
2021/09/24 12:24:11;;;;;;;17.77;15.93;;;21.90;99.30;;;;;;5094774;28;20024;-40
2021/09/24 12:26:39;;;;;;;16.42;14.40;;;21.90;99.30;;;;;;5111056;28;20110;-41
2021/09/24 12:29:11;;;;;;;16.77;14.35;;;21.90;99.20;;;;;;5112361;28;20040;-41
2021/09/24 12:31:43;;;;;;;17.40;13.88;;;21.90;99.10;;;;;;5111455;28;20044;-40
2021/09/24 12:34:12;;;;;;;14.83;13.13;;;21.90;99.00;;;;;;5111526;28;20085;-37
2021/09/24 12:36:58;;;;;;;13.00;11.70;;;21.80;98.90;;;;;;5104692;28;20011;-41
2021/09/24 12:39:27;;;;;;;13.45;11.00;;;21.80;99.30;;;;;;5111452;28;20497;-41
2021/09/24 12:41:53;;;;;;;12.98;10.18;;;21.90;99.20;;;;;;5111385;28;20087;-41